Time;durP1;ratioP1;P1;durP2;ratioP2;P2;SDS_P1;SDS_P2;PMS_P1;PMS_P2;Temp;Humidity;BMP_temperature;BMP_pressure;BME280_temperature;BME280_humidity;BME280_pressure;Samples;Min_cycle;Max_cycle;Signal;HPM_P1;HPM_P2
2021/12/28 00:00:24;;;;;;;1.10;1.10;;;19.80;51.20;;;;;;5031422;28;20779;-68
2021/12/28 00:02:50;;;;;;;1.30;1.30;;;19.80;51.20;;;;;;5031409;28;20465;-68
2021/12/28 00:05:17;;;;;;;1.27;1.27;;;19.80;51.20;;;;;;5031366;28;20431;-68
2021/12/28 00:07:43;;;;;;;1.10;1.10;;;20.00;51.30;;;;;;5031456;28;20510;-69
2021/12/28 00:10:11;;;;;;;1.40;1.30;;;20.10;51.40;;;;;;5031371;28;20928;-68
2021/12/28 00:12:38;;;;;;;1.20;1.20;;;19.80;51.20;;;;;;5046616;28;20184;-68
2021/12/28 00:15:19;;;;;;;1.67;1.40;;;19.80;51.20;;;;;;5050940;28;20441;-69
2021/12/28 00:17:59;;;;;;;1.10;1.10;;;19.80;51.20;;;;;;5051365;28;20391;-69
2021/12/28 00:20:29;;;;;;;1.13;1.13;;;19.80;51.20;;;;;;5051098;28;20448;-68
2021/12/28 00:22:55;;;;;;;1.10;1.10;;;19.80;51.20;;;;;;5050743;28;20406;-68
2021/12/28 00:25:20;;;;;;;1.47;1.37;;;19.80;51.20;;;;;;5051132;28;20769;-68
2021/12/28 00:27:46;;;;;;;1.23;1.13;;;19.80;51.20;;;;;;5051126;28;20407;-68
2021/12/28 00:30:11;;;;;;;0.90;0.90;;;19.80;51.30;;;;;;5050736;28;20184;-69
2021/12/28 00:32:38;;;;;;;1.00;1.00;;;19.80;51.30;;;;;;5050748;28;20623;-69
2021/12/28 00:35:04;;;;;;;2.60;1.53;;;19.80;51.30;;;;;;5050690;28;20215;-69
2021/12/28 00:37:30;;;;;;;1.57;1.00;;;19.80;51.30;;;;;;5050721;28;20403;-69
2021/12/28 00:39:56;;;;;;;1.37;1.27;;;19.70;51.20;;;;;;5050786;28;20731;-68
2021/12/28 00:42:22;;;;;;;1.50;1.50;;;19.80;51.30;;;;;;5050715;28;20207;-68
2021/12/28 00:44:47;;;;;;;1.10;1.10;;;19.80;51.30;;;;;;5050432;28;20195;-68
2021/12/28 00:47:13;;;;;;;1.27;1.17;;;19.80;51.30;;;;;;5050545;28;20495;-68
2021/12/28 00:49:38;;;;;;;1.27;1.00;;;19.90;51.40;;;;;;5050702;28;20178;-68
2021/12/28 00:52:04;;;;;;;1.17;1.07;;;19.70;51.20;;;;;;5050092;28;20198;-69
2021/12/28 00:54:30;;;;;;;1.33;1.00;;;19.70;51.30;;;;;;5046817;28;20256;-69
2021/12/28 00:56:55;;;;;;;0.97;0.97;;;19.70;51.30;;;;;;5030677;28;20403;-69
2021/12/28 00:59:21;;;;;;;1.47;1.00;;;19.70;51.30;;;;;;5030472;28;20177;-69
2021/12/28 01:01:47;;;;;;;1.00;1.00;;;19.70;51.30;;;;;;5030611;28;20252;-69
2021/12/28 01:04:14;;;;;;;1.57;1.47;;;19.70;51.30;;;;;;5029846;28;20348;-69
2021/12/28 01:06:39;;;;;;;2.10;1.27;;;19.70;51.30;;;;;;5030234;28;20408;-69
2021/12/28 01:09:05;;;;;;;1.00;0.90;;;20.00;51.40;;;;;;5030308;28;20427;-69
2021/12/28 01:11:31;;;;;;;1.30;1.20;;;19.70;51.30;;;;;;5036817;28;20628;-69
2021/12/28 01:13:56;;;;;;;0.83;0.83;;;19.70;51.30;;;;;;5049767;28;20305;-69
2021/12/28 01:16:22;;;;;;;1.33;1.23;;;20.00;51.50;;;;;;5050092;28;20250;-69
2021/12/28 01:18:47;;;;;;;1.10;1.00;;;19.70;51.30;;;;;;5050012;28;20168;-69
2021/12/28 01:21:13;;;;;;;1.90;0.97;;;19.70;51.30;;;;;;5050038;28;20176;-69
2021/12/28 01:23:38;;;;;;;1.50;1.40;;;19.80;62.90;;;;;;5049854;28;20254;-69
2021/12/28 01:26:04;;;;;;;1.00;1.00;;;19.70;51.30;;;;;;5049875;28;20174;-69
2021/12/28 01:28:30;;;;;;;1.73;1.23;;;19.70;51.30;;;;;;5049899;28;20262;-69
2021/12/28 01:30:56;;;;;;;1.20;1.20;;;19.80;51.40;;;;;;5049559;28;20259;-69
2021/12/28 01:33:22;;;;;;;1.33;1.23;;;;;;;;;;5047988;28;20253;-69
2021/12/28 01:35:47;;;;;;;2.23;1.10;;;19.70;50.80;;;;;;5049447;28;20184;-69
2021/12/28 01:38:13;;;;;;;2.30;1.00;;;19.70;51.40;;;;;;5049402;28;20425;-69
2021/12/28 01:40:41;;;;;;;1.10;1.00;;;19.70;51.40;;;;;;5049562;28;20320;-69
2021/12/28 01:43:17;;;;;;;2.00;1.20;;;19.70;52.00;;;;;;5049416;28;20672;-69
2021/12/28 01:45:46;;;;;;;0.90;0.90;;;19.70;51.40;;;;;;5049400;28;20524;-69
2021/12/28 01:48:16;;;;;;;1.27;1.23;;;19.90;51.40;;;;;;5049423;28;20418;-69
2021/12/28 01:50:41;;;;;;;0.93;0.93;;;19.70;51.40;;;;;;5049336;28;20887;-69
2021/12/28 01:53:08;;;;;;;1.40;1.00;;;19.70;50.90;;;;;;5048838;28;20527;-69
2021/12/28 01:55:35;;;;;;;1.10;1.00;;;20.10;51.60;;;;;;5036918;28;20655;-69
2021/12/28 01:58:01;;;;;;;0.80;0.80;;;19.70;51.40;;;;;;5029481;28;20521;-69
2021/12/28 02:00:28;;;;;;;1.20;1.20;;;19.70;51.40;;;;;;5029307;28;20506;-69
2021/12/28 02:02:53;;;;;;;1.30;1.20;;;19.70;51.40;;;;;;5029039;28;20411;-69
2021/12/28 02:05:19;;;;;;;1.43;1.33;;;19.60;51.30;;;;;;5029005;28;20871;-69
2021/12/28 02:07:44;;;;;;;0.93;0.90;;;20.00;51.60;;;;;;5029362;28;20306;-69
2021/12/28 02:10:10;;;;;;;1.03;1.03;;;19.60;51.30;;;;;;5028998;28;20665;-69
2021/12/28 02:12:36;;;;;;;1.00;1.00;;;20.00;51.60;;;;;;5044323;28;20182;-69
2021/12/28 02:15:06;;;;;;;0.80;0.80;;;19.60;51.30;;;;;;5048031;28;20671;-69
2021/12/28 02:17:33;;;;;;;1.07;0.97;;;19.60;51.40;;;;;;5048964;28;20624;-69
2021/12/28 02:20:15;;;;;;;1.47;1.37;;;19.60;51.40;;;;;;5048914;28;21057;-69
2021/12/28 02:22:42;;;;;;;0.90;0.90;;;19.70;51.40;;;;;;5048783;28;20393;-69
2021/12/28 02:25:08;;;;;;;1.13;1.00;;;19.60;51.40;;;;;;5048729;28;20433;-69
2021/12/28 02:27:34;;;;;;;1.07;1.07;;;19.60;51.40;;;;;;5048857;28;20524;-69
2021/12/28 02:30:03;;;;;;;1.10;1.10;;;20.90;52.00;;;;;;5048632;28;20415;-69
2021/12/28 02:32:29;;;;;;;1.10;1.00;;;19.60;51.40;;;;;;5048637;28;20414;-69
2021/12/28 02:34:56;;;;;;;1.00;1.00;;;19.60;51.40;;;;;;5048559;28;21064;-69
2021/12/28 02:37:23;;;;;;;1.30;0.90;;;19.60;51.40;;;;;;5048668;28;20402;-69
2021/12/28 02:39:49;;;;;;;0.70;0.70;;;19.60;51.40;;;;;;5047241;28;20416;-69
2021/12/28 02:42:17;;;;;;;1.23;0.83;;;19.60;51.40;;;;;;5048619;28;20488;-69
2021/12/28 02:44:42;;;;;;;1.07;1.07;;;19.60;51.40;;;;;;5048243;28;20204;-69
2021/12/28 02:47:08;;;;;;;1.33;1.23;;;19.60;51.40;;;;;;5048480;28;20895;-69
2021/12/28 02:49:37;;;;;;;0.80;0.80;;;19.70;51.40;;;;;;5048480;28;20190;-69
2021/12/28 02:52:09;;;;;;;0.80;0.80;;;19.60;51.40;;;;;;5048219;28;20180;-69
2021/12/28 02:54:36;;;;;;;0.97;0.97;;;19.60;51.40;;;;;;5044078;28;20548;-69
2021/12/28 02:57:02;;;;;;;1.47;1.40;;;19.60;51.40;;;;;;5028340;28;20408;-69
2021/12/28 02:59:28;;;;;;;0.80;0.80;;;19.60;51.40;;;;;;5028435;28;20414;-69
2021/12/28 03:01:53;;;;;;;1.00;1.00;;;19.60;51.40;;;;;;5028260;28;20621;-69
2021/12/28 03:04:23;;;;;;;1.00;1.00;;;19.60;51.40;;;;;;5028020;28;20196;-69
2021/12/28 03:06:49;;;;;;;1.37;1.10;;;19.60;51.40;;;;;;5028460;28;20660;-69
2021/12/28 03:09:15;;;;;;;1.30;1.30;;;19.60;51.40;;;;;;5028069;28;20412;-69
2021/12/28 03:11:41;;;;;;;1.47;1.20;;;19.60;51.50;;;;;;5035852;28;20613;-69
2021/12/28 03:14:07;;;;;;;1.07;0.97;;;19.60;51.40;;;;;;5047845;28;20475;-69
2021/12/28 03:16:33;;;;;;;1.70;1.20;;;19.70;51.50;;;;;;5048020;28;20164;-69
2021/12/28 03:18:59;;;;;;;1.20;1.10;;;19.60;51.50;;;;;;5048111;28;20176;-69
2021/12/28 03:21:26;;;;;;;1.20;1.10;;;19.60;51.60;;;;;;5048068;28;20469;-69
2021/12/28 03:23:54;;;;;;;1.00;1.00;;;19.70;51.50;;;;;;5047736;28;20541;-69
2021/12/28 03:26:20;;;;;;;1.00;1.00;;;19.60;51.40;;;;;;5049786;28;20566;-68
2021/12/28 03:28:46;;;;;;;1.20;1.20;;;19.60;51.40;;;;;;5052023;28;20414;-69
2021/12/28 03:31:14;;;;;;;0.80;0.80;;;19.60;51.50;;;;;;5051969;28;20176;-69
2021/12/28 03:33:43;;;;;;;1.10;1.00;;;19.40;63.10;;;;;;5051694;28;20939;-69
2021/12/28 03:36:09;;;;;;;1.43;1.17;;;19.60;51.50;;;;;;5051840;28;20411;-70
2021/12/28 03:38:38;;;;;;;1.20;1.10;;;19.50;51.40;;;;;;5051983;28;20410;-69
2021/12/28 03:41:08;;;;;;;1.33;1.23;;;19.50;51.40;;;;;;5051738;28;20411;-69
2021/12/28 03:43:40;;;;;;;1.73;1.20;;;17.40;60.90;;;;;;5051526;28;20452;-69
2021/12/28 03:46:07;;;;;;;1.00;0.90;;;19.50;51.40;;;;;;5051624;28;20410;-69
2021/12/28 03:48:34;;;;;;;1.27;0.90;;;19.60;51.40;;;;;;5051638;28;20425;-69
2021/12/28 03:51:00;;;;;;;0.80;0.80;;;19.60;51.50;;;;;;5051617;28;20409;-69
2021/12/28 03:53:26;;;;;;;0.90;0.80;;;20.30;63.30;;;;;;5051192;28;20465;-69
2021/12/28 03:55:52;;;;;;;0.93;0.83;;;19.60;51.50;;;;;;5036661;28;20242;-69
2021/12/28 03:58:17;;;;;;;1.33;1.10;;;19.60;51.50;;;;;;5031588;28;20411;-69
2021/12/28 04:00:45;;;;;;;1.53;1.40;;;19.60;51.50;;;;;;5031492;28;20627;-69
2021/12/28 04:03:12;;;;;;;1.43;1.10;;;19.60;51.50;;;;;;5031353;28;20184;-69
2021/12/28 04:05:39;;;;;;;1.50;1.40;;;20.00;51.70;;;;;;5031347;28;20427;-69
2021/12/28 04:08:05;;;;;;;0.70;0.70;;;19.60;51.50;;;;;;5031316;28;20404;-69
2021/12/28 04:10:38;;;;;;;1.00;1.00;;;19.60;51.50;;;;;;5031245;28;20530;-69
2021/12/28 04:13:04;;;;;;;1.83;1.20;;;19.60;51.50;;;;;;5050342;28;20422;-69
2021/12/28 04:15:29;;;;;;;0.90;0.90;;;19.60;51.60;;;;;;5051199;28;20480;-69
2021/12/28 04:17:55;;;;;;;2.30;1.20;;;19.60;51.60;;;;;;5039258;28;20185;-69
2021/12/28 04:20:22;;;;;;;0.77;0.77;;;19.50;51.50;;;;;;5028441;28;20184;-69
2021/12/28 04:22:48;;;;;;;1.70;0.73;;;19.60;51.60;;;;;;5028931;28;20587;-69
2021/12/28 04:25:16;;;;;;;2.03;1.83;;;19.70;51.60;;;;;;5028975;28;20443;-69
2021/12/28 04:27:42;;;;;;;0.97;0.97;;;19.50;51.50;;;;;;5028120;28;20422;-69
2021/12/28 04:30:10;;;;;;;0.90;0.90;;;19.60;51.60;;;;;;5031136;28;20419;-69
2021/12/28 04:32:37;;;;;;;0.80;0.80;;;19.50;51.50;;;;;;5030738;28;20872;-69
2021/12/28 04:35:03;;;;;;;1.20;1.10;;;19.50;51.50;;;;;;5030701;28;20467;-69
2021/12/28 04:37:29;;;;;;;0.70;0.70;;;19.50;51.60;;;;;;5030269;28;20494;-69
2021/12/28 04:39:54;;;;;;;0.63;0.63;;;19.80;51.70;;;;;;5031006;28;20501;-69
2021/12/28 04:42:20;;;;;;;0.73;0.60;;;19.50;51.60;;;;;;5030951;28;20169;-69
2021/12/28 04:44:49;;;;;;;1.43;1.00;;;19.50;51.60;;;;;;5030853;28;20554;-69
2021/12/28 04:47:16;;;;;;;1.50;0.80;;;19.50;51.60;;;;;;5030982;28;20292;-69
2021/12/28 04:49:42;;;;;;;0.77;0.77;;;19.60;51.60;;;;;;5030885;28;20493;-69
2021/12/28 04:52:08;;;;;;;1.00;0.90;;;19.50;51.60;;;;;;5030608;28;20427;-69
2021/12/28 04:54:33;;;;;;;1.00;0.73;;;19.50;51.60;;;;;;5030404;28;20455;-69
2021/12/28 04:56:59;;;;;;;0.80;0.80;;;19.50;51.60;;;;;;5030712;28;20184;-69
2021/12/28 04:59:24;;;;;;;1.37;1.23;;;19.50;51.60;;;;;;5029035;28;20200;-69
2021/12/28 05:01:50;;;;;;;0.80;0.80;;;19.80;51.70;;;;;;5030727;28;20251;-69
2021/12/28 05:04:15;;;;;;;0.97;0.97;;;19.60;51.70;;;;;;5030487;28;20201;-69
2021/12/28 05:06:41;;;;;;;1.23;0.97;;;19.50;51.70;;;;;;5030606;28;20620;-69
2021/12/28 05:09:11;;;;;;;1.10;0.80;;;19.70;51.70;;;;;;5030588;28;20267;-69
2021/12/28 05:11:38;;;;;;;0.73;0.70;;;19.70;51.70;;;;;;5037952;28;20660;-69
2021/12/28 05:14:05;;;;;;;1.30;1.30;;;19.50;51.60;;;;;;5050119;28;20458;-69
2021/12/28 05:16:33;;;;;;;1.03;0.80;;;19.50;51.70;;;;;;5050480;28;20417;-69
2021/12/28 05:19:00;;;;;;;0.83;0.83;;;19.50;51.70;;;;;;5050524;28;20410;-69
2021/12/28 05:21:26;;;;;;;1.43;0.83;;;19.50;51.70;;;;;;5050212;28;20720;-69
2021/12/28 05:23:52;;;;;;;0.80;0.80;;;19.70;51.80;;;;;;5049835;28;20430;-69
2021/12/28 05:26:17;;;;;;;1.10;1.00;;;19.10;51.50;;;;;;5048449;28;20172;-69
2021/12/28 05:28:43;;;;;;;1.67;1.10;;;19.50;51.70;;;;;;5049927;28;20572;-69
2021/12/28 05:31:09;;;;;;;0.70;0.70;;;19.50;51.70;;;;;;5049742;28;20254;-69
2021/12/28 05:33:34;;;;;;;1.37;1.17;;;19.50;62.80;;;;;;5049502;28;20283;-69
2021/12/28 05:36:00;;;;;;;1.13;0.80;;;19.80;51.90;;;;;;5050066;28;20172;-69
2021/12/28 05:38:26;;;;;;;1.07;1.07;;;19.50;51.70;;;;;;5049801;28;20176;-69
2021/12/28 05:40:51;;;;;;;0.90;0.90;;;19.40;51.60;;;;;;5049782;28;20179;-69
2021/12/28 05:43:17;;;;;;;0.80;0.80;;;19.40;51.70;;;;;;5049467;28;20565;-69
2021/12/28 05:45:43;;;;;;;1.10;0.73;;;19.60;51.80;;;;;;5049210;28;20196;-69
2021/12/28 05:48:09;;;;;;;0.73;0.73;;;19.50;51.70;;;;;;5049570;28;20594;-69
2021/12/28 05:50:35;;;;;;;0.63;0.63;;;19.50;51.80;;;;;;5049491;28;20502;-69
2021/12/28 05:53:01;;;;;;;2.63;1.00;;;19.50;51.70;;;;;;5049347;28;20198;-69
2021/12/28 05:55:26;;;;;;;0.90;0.90;;;19.60;51.80;;;;;;5038161;28;20450;-69
2021/12/28 05:57:52;;;;;;;0.80;0.80;;;19.60;51.80;;;;;;5029424;28;20169;-69
2021/12/28 06:00:18;;;;;;;0.60;0.60;;;19.50;51.80;;;;;;5029267;28;20588;-69
2021/12/28 06:02:45;;;;;;;1.73;0.80;;;19.50;51.80;;;;;;5029101;28;20267;-69
2021/12/28 06:05:10;;;;;;;2.40;0.83;;;20.00;52.60;;;;;;5029070;28;20216;-69
2021/12/28 06:07:37;;;;;;;0.80;0.80;;;19.50;51.80;;;;;;5029087;28;20446;-69
2021/12/28 06:10:04;;;;;;;0.70;0.70;;;19.50;51.80;;;;;;5029123;28;20177;-69
2021/12/28 06:12:29;;;;;;;0.50;0.50;;;19.50;51.80;;;;;;5043424;28;20940;-69
2021/12/28 06:14:55;;;;;;;1.07;0.83;;;19.50;51.80;;;;;;5048745;28;20457;-69
2021/12/28 06:17:21;;;;;;;0.87;0.87;;;19.50;51.80;;;;;;5048935;28;20508;-69
2021/12/28 06:19:47;;;;;;;0.67;0.67;;;19.50;51.80;;;;;;5048917;28;20183;-69
2021/12/28 06:22:13;;;;;;;0.90;0.57;;;19.50;51.80;;;;;;5048864;28;20409;-69
2021/12/28 06:24:39;;;;;;;0.87;0.87;;;19.50;51.90;;;;;;5048719;28;20434;-69
2021/12/28 06:27:05;;;;;;;0.60;0.60;;;19.50;51.90;;;;;;5048868;28;20283;-69
2021/12/28 06:29:30;;;;;;;1.00;0.80;;;19.50;51.80;;;;;;5048643;28;20426;-69
2021/12/28 06:31:56;;;;;;;0.80;0.80;;;19.40;51.80;;;;;;5048499;28;20573;-69
2021/12/28 06:34:21;;;;;;;0.70;0.67;;;19.50;51.80;;;;;;5048573;28;20302;-69
2021/12/28 06:36:47;;;;;;;0.60;0.60;;;19.50;51.80;;;;;;5033279;28;20187;-69
2021/12/28 06:39:12;;;;;;;0.63;0.63;;;19.50;51.80;;;;;;5028722;28;20223;-69
2021/12/28 06:41:38;;;;;;;1.23;1.13;;;19.50;51.80;;;;;;5027057;28;20263;-69
2021/12/28 06:44:05;;;;;;;1.17;1.00;;;19.50;51.80;;;;;;5028166;28;20278;-69
2021/12/28 06:46:31;;;;;;;0.50;0.50;;;19.50;51.80;;;;;;5028649;28;20242;-69
2021/12/28 06:48:56;;;;;;;4.10;0.70;;;19.50;51.80;;;;;;5028701;28;20407;-69
2021/12/28 06:51:22;;;;;;;0.77;0.77;;;19.50;51.80;;;;;;5028507;28;20173;-69
2021/12/28 06:53:48;;;;;;;0.70;0.70;;;19.60;51.80;;;;;;5028460;28;20208;-69
2021/12/28 06:56:14;;;;;;;1.23;0.67;;;19.50;51.80;;;;;;5028544;28;20973;-69
2021/12/28 06:58:40;;;;;;;0.50;0.50;;;19.50;51.80;;;;;;5028508;28;20218;-69
2021/12/28 07:01:07;;;;;;;0.50;0.50;;;19.70;51.90;;;;;;5027894;28;20223;-69
2021/12/28 07:03:32;;;;;;;0.87;0.70;;;19.50;63.40;;;;;;5028031;28;20403;-69
2021/12/28 07:05:58;;;;;;;0.83;0.83;;;19.50;51.80;;;;;;5028193;28;20423;-69
2021/12/28 07:08:24;;;;;;;0.80;0.67;;;19.50;51.80;;;;;;5028230;28;20173;-69
2021/12/28 07:10:50;;;;;;;0.60;0.60;;;19.50;51.80;;;;;;5029051;28;20486;-69
2021/12/28 07:13:16;;;;;;;0.70;0.70;;;19.40;51.70;;;;;;5048034;28;20544;-69
2021/12/28 07:15:42;;;;;;;1.17;1.07;;;19.50;51.80;;;;;;5047923;28;20198;-69
2021/12/28 07:18:07;;;;;;;0.90;0.90;;;19.80;51.90;;;;;;5048164;28;20230;-69
2021/12/28 07:20:33;;;;;;;0.70;0.70;;;19.70;51.80;;;;;;5048202;28;20402;-69
2021/12/28 07:22:59;;;;;;;0.60;0.60;;;19.50;51.80;;;;;;5048031;28;20265;-69
2021/12/28 07:25:24;;;;;;;0.70;0.70;;;19.50;51.80;;;;;;5048001;28;20662;-69
2021/12/28 07:27:51;;;;;;;0.60;0.60;;;19.50;51.80;;;;;;5047876;28;20168;-69
2021/12/28 07:30:17;;;;;;;0.80;0.80;;;19.60;51.80;;;;;;5032446;28;20181;-69
2021/12/28 07:32:42;;;;;;;0.90;0.70;;;19.50;51.80;;;;;;5027749;28;20476;-69
2021/12/28 07:35:09;;;;;;;0.50;0.50;;;19.50;51.80;;;;;;5022902;28;20641;-69
2021/12/28 07:37:35;;;;;;;1.17;0.70;;;19.50;51.80;;;;;;5028191;28;20481;-69
2021/12/28 07:40:02;;;;;;;0.57;0.57;;;19.50;51.80;;;;;;5028092;28;20408;-69
2021/12/28 07:42:27;;;;;;;0.67;0.67;;;20.00;52.10;;;;;;5027822;28;20832;-69
2021/12/28 07:44:53;;;;;;;1.10;0.73;;;19.40;51.80;;;;;;5027864;28;20596;-69
2021/12/28 07:47:18;;;;;;;0.67;0.60;;;19.70;52.00;;;;;;5028069;28;20180;-69
2021/12/28 07:49:44;;;;;;;0.60;0.50;;;19.50;51.90;;;;;;5027946;28;20176;-69
2021/12/28 07:52:10;;;;;;;0.67;0.67;;;19.40;51.80;;;;;;5027766;28;20193;-69
2021/12/28 07:54:35;;;;;;;0.83;0.60;;;19.50;51.90;;;;;;5027699;28;20204;-69
2021/12/28 07:57:01;;;;;;;0.63;0.63;;;19.50;51.90;;;;;;5027638;28;20165;-69
2021/12/28 07:59:27;;;;;;;1.03;0.63;;;19.50;51.90;;;;;;5027985;28;20473;-69
2021/12/28 08:01:52;;;;;;;0.80;0.80;;;19.50;51.90;;;;;;5027643;28;20617;-69
2021/12/28 08:04:18;;;;;;;0.60;0.50;;;19.50;51.90;;;;;;5027532;28;20275;-69
2021/12/28 08:06:44;;;;;;;0.50;0.50;;;19.40;51.90;;;;;;5027709;28;20176;-69
2021/12/28 08:09:10;;;;;;;0.60;0.60;;;19.80;52.10;;;;;;5028022;28;20171;-69
2021/12/28 08:11:36;;;;;;;0.60;0.60;;;19.80;52.00;;;;;;5034816;28;20419;-69
2021/12/28 08:14:02;;;;;;;0.70;0.70;;;19.50;51.90;;;;;;5050397;28;20203;-69
2021/12/28 08:16:28;;;;;;;0.60;0.60;;;19.40;51.90;;;;;;5051474;28;20164;-69
2021/12/28 08:18:53;;;;;;;0.67;0.67;;;19.60;52.00;;;;;;5051324;28;20749;-69
2021/12/28 08:21:20;;;;;;;1.80;0.77;;;19.50;52.00;;;;;;5051093;28;20164;-69
2021/12/28 08:23:46;;;;;;;0.70;0.70;;;19.50;52.00;;;;;;5050936;28;20651;-69
2021/12/28 08:26:12;;;;;;;0.90;0.90;;;19.50;52.00;;;;;;5051033;28;20442;-69
2021/12/28 08:28:37;;;;;;;0.53;0.53;;;19.50;52.00;;;;;;5050971;28;20472;-69
2021/12/28 08:31:03;;;;;;;0.50;0.50;;;19.50;52.10;;;;;;5051217;28;20544;-69
2021/12/28 08:33:29;;;;;;;0.93;0.60;;;19.80;59.40;;;;;;5050579;28;20298;-69
2021/12/28 08:35:56;;;;;;;0.63;0.63;;;19.50;52.10;;;;;;5050994;28;20190;-69
2021/12/28 08:38:22;;;;;;;0.60;0.60;;;19.50;52.10;;;;;;5051195;28;20221;-69
2021/12/28 08:40:48;;;;;;;1.30;0.60;;;19.40;52.00;;;;;;5050866;28;20438;-69
2021/12/28 08:43:14;;;;;;;0.60;0.60;;;19.30;52.00;;;;;;5050598;28;20532;-69
2021/12/28 08:45:40;;;;;;;0.70;0.70;;;19.50;52.10;;;;;;5050736;28;20192;-69
2021/12/28 08:48:08;;;;;;;0.80;0.50;;;19.50;52.10;;;;;;5050725;28;20173;-69
2021/12/28 08:50:35;;;;;;;0.70;0.70;;;18.90;51.80;;;;;;5050740;28;20915;-69
2021/12/28 08:53:01;;;;;;;0.50;0.50;;;19.40;52.10;;;;;;5050224;28;20426;-69
2021/12/28 08:55:26;;;;;;;0.50;0.50;;;19.40;52.10;;;;;;5039082;28;20442;-69
2021/12/28 08:57:52;;;;;;;0.60;0.60;;;19.40;52.10;;;;;;5030765;28;20172;-69
2021/12/28 09:00:23;;;;;;;0.60;0.60;;;19.40;52.10;;;;;;5030614;28;20622;-69
2021/12/28 09:02:51;;;;;;;0.50;0.47;;;19.40;52.10;;;;;;5030473;28;20411;-69
2021/12/28 09:05:17;;;;;;;1.33;0.80;;;19.50;52.20;;;;;;5030525;28;20470;-69
2021/12/28 09:07:42;;;;;;;0.60;0.50;;;19.40;52.20;;;;;;5028888;28;20455;-69
2021/12/28 09:10:08;;;;;;;0.60;0.60;;;19.60;52.30;;;;;;5030288;28;20267;-69
2021/12/28 09:12:34;;;;;;;0.50;0.50;;;19.40;52.20;;;;;;5045323;28;20191;-69
2021/12/28 09:15:00;;;;;;;0.70;0.70;;;19.40;52.20;;;;;;5050065;28;20242;-69
2021/12/28 09:17:25;;;;;;;0.60;0.50;;;19.60;52.30;;;;;;5050435;28;20172;-69
2021/12/28 09:19:51;;;;;;;0.70;0.53;;;19.40;52.20;;;;;;5050081;28;20321;-69
2021/12/28 09:22:17;;;;;;;1.03;1.03;;;19.40;52.30;;;;;;5049826;28;20180;-69
2021/12/28 09:24:42;;;;;;;0.80;0.60;;;19.40;52.30;;;;;;5049642;28;20268;-69
2021/12/28 09:27:08;;;;;;;0.50;0.50;;;19.60;52.40;;;;;;5050132;28;20596;-69
2021/12/28 09:29:35;;;;;;;0.70;0.67;;;19.40;52.20;;;;;;5049988;28;20830;-69
2021/12/28 09:32:02;;;;;;;0.50;0.50;;;19.60;52.40;;;;;;5049664;28;20164;-69
2021/12/28 09:34:28;;;;;;;0.80;0.80;;;19.40;52.30;;;;;;5049768;28;20566;-69
2021/12/28 09:36:54;;;;;;;0.50;0.40;;;19.40;52.30;;;;;;5049785;28;20406;-69
2021/12/28 09:39:22;;;;;;;0.60;0.60;;;19.90;52.50;;;;;;5049611;28;20402;-69
2021/12/28 09:41:53;;;;;;;0.60;0.60;;;19.90;52.50;;;;;;5049680;28;20505;-69
2021/12/28 09:44:19;;;;;;;0.67;0.67;;;18.80;52.00;;;;;;5049585;28;20428;-69
2021/12/28 09:46:45;;;;;;;0.50;0.50;;;19.40;52.30;;;;;;5049398;28;20406;-69
2021/12/28 09:49:11;;;;;;;0.60;0.60;;;19.40;52.30;;;;;;5049500;28;20852;-69
2021/12/28 09:51:37;;;;;;;0.67;0.67;;;19.50;52.40;;;;;;5049305;28;20244;-69
2021/12/28 09:54:02;;;;;;;0.60;0.60;;;19.30;52.30;;;;;;5049108;28;20208;-69
2021/12/28 09:56:28;;;;;;;0.60;0.60;;;19.40;52.30;;;;;;5029968;28;20572;-69
2021/12/28 09:58:54;;;;;;;0.57;0.57;;;19.40;52.30;;;;;;5029472;28;20419;-69
2021/12/28 10:01:20;;;;;;;0.63;0.50;;;19.40;52.40;;;;;;5029439;28;20192;-69
2021/12/28 10:03:47;;;;;;;0.60;0.60;;;19.40;52.40;;;;;;5029185;28;20242;-69
2021/12/28 10:06:21;;;;;;;1.57;0.50;;;19.40;52.40;;;;;;5029215;28;20443;-69
2021/12/28 10:09:08;;;;;;;0.53;0.53;;;19.50;52.40;;;;;;5027845;28;20464;-69
2021/12/28 10:11:42;;;;;;;0.60;0.60;;;19.40;52.40;;;;;;5035543;28;20430;-69
2021/12/28 10:14:23;;;;;;;0.60;0.60;;;19.40;52.40;;;;;;5048819;28;20473;-69
2021/12/28 10:16:52;;;;;;;0.60;0.60;;;19.40;52.40;;;;;;5048788;28;20426;-69
2021/12/28 10:19:45;;;;;;;0.57;0.57;;;19.40;52.40;;;;;;5048922;28;20406;-69
2021/12/28 10:22:34;;;;;;;0.70;0.70;;;19.40;52.40;;;;;;5047235;28;20437;-69
2021/12/28 10:25:09;;;;;;;0.70;0.50;;;19.30;52.30;;;;;;5048956;28;20431;-69
2021/12/28 10:27:37;;;;;;;0.50;0.40;;;19.50;52.40;;;;;;5049350;28;20404;-69
2021/12/28 10:30:09;;;;;;;0.63;0.63;;;19.50;52.50;;;;;;5049185;28;20937;-69
2021/12/28 10:32:36;;;;;;;0.67;0.67;;;19.40;52.40;;;;;;5048782;28;20883;-69
2021/12/28 10:35:06;;;;;;;0.50;0.50;;;19.50;52.50;;;;;;5048241;28;20553;-69
2021/12/28 10:37:37;;;;;;;0.60;0.60;;;19.40;52.40;;;;;;5048675;28;20490;-69
2021/12/28 10:40:09;;;;;;;0.70;0.50;;;19.40;52.50;;;;;;5048559;28;20419;-69
2021/12/28 10:42:49;;;;;;;0.60;0.53;;;19.40;52.50;;;;;;5048356;28;20410;-69
2021/12/28 10:45:19;;;;;;;0.90;0.50;;;19.40;52.50;;;;;;5048177;28;20621;-69
2021/12/28 10:47:45;;;;;;;0.60;0.60;;;19.40;52.50;;;;;;5048543;28;20484;-69
2021/12/28 10:50:34;;;;;;;0.50;0.50;;;19.80;52.70;;;;;;5048450;28;20406;-71
2021/12/28 10:53:08;;;;;;;0.50;0.50;;;19.40;52.50;;;;;;5048275;28;20434;-70
2021/12/28 10:55:34;;;;;;;0.50;0.50;;;19.40;52.50;;;;;;5036261;28;20443;-69
2021/12/28 10:58:03;;;;;;;0.60;0.60;;;19.40;52.50;;;;;;5029036;28;20511;-69
2021/12/28 11:00:42;;;;;;;0.60;0.60;;;19.40;52.50;;;;;;5028638;28;20736;-69
2021/12/28 11:03:17;;;;;;;0.53;0.53;;;19.40;52.50;;;;;;5028602;28;20434;-69
2021/12/28 11:05:45;;;;;;;0.50;0.50;;;19.50;52.50;;;;;;5028506;28;20806;-69
2021/12/28 11:08:11;;;;;;;0.80;0.50;;;19.40;52.50;;;;;;5028629;28;20442;-69
2021/12/28 11:10:44;;;;;;;0.60;0.53;;;19.40;52.50;;;;;;5028576;28;20487;-69
2021/12/28 11:13:12;;;;;;;0.50;0.50;;;19.00;52.30;;;;;;5048230;28;20968;-69
2021/12/28 11:15:45;;;;;;;1.47;1.37;;;19.80;52.80;;;;;;5048191;28;20434;-70
2021/12/28 11:18:21;;;;;;;0.50;0.40;;;19.40;52.50;;;;;;5048359;28;20505;-69
2021/12/28 11:20:48;;;;;;;0.60;0.57;;;19.50;52.60;;;;;;5048379;28;20928;-69
2021/12/28 11:23:19;;;;;;;0.50;0.50;;;19.50;52.60;;;;;;5048069;28;20473;-70
2021/12/28 11:25:46;;;;;;;0.50;0.50;;;19.40;52.50;;;;;;5048375;28;20458;-69
2021/12/28 11:28:21;;;;;;;0.60;0.60;;;19.40;52.50;;;;;;5048550;28;20410;-69
2021/12/28 11:31:10;;;;;;;0.50;0.50;;;19.40;52.50;;;;;;5048204;28;20762;-70
2021/12/28 11:34:04;;;;;;;1.20;0.63;;;19.80;64.00;;;;;;5048027;28;20508;-69
2021/12/28 11:36:42;;;;;;;0.50;0.50;;;19.40;52.50;;;;;;5048138;28;20414;-70
2021/12/28 11:39:11;;;;;;;0.50;0.50;;;19.40;52.50;;;;;;5048147;28;20899;-70
2021/12/28 11:41:38;;;;;;;1.07;0.60;;;19.50;52.60;;;;;;5048103;28;20402;-69
2021/12/28 11:44:04;;;;;;;0.60;0.60;;;19.40;52.60;;;;;;5047764;28;20444;-70
2021/12/28 11:46:30;;;;;;;0.50;0.40;;;19.40;52.60;;;;;;5048724;28;20495;-70
2021/12/28 11:48:56;;;;;;;0.60;0.60;;;19.40;52.60;;;;;;5052300;28;20887;-69
2021/12/28 11:51:24;;;;;;;0.50;0.50;;;19.40;52.60;;;;;;5052024;28;20417;-70
2021/12/28 11:53:52;;;;;;;0.50;0.50;;;19.40;52.60;;;;;;5052279;28;20477;-69
2021/12/28 11:56:22;;;;;;;0.60;0.60;;;19.40;52.70;;;;;;5034318;28;20419;-70
2021/12/28 11:59:14;;;;;;;1.70;0.50;;;19.80;52.80;;;;;;5032502;28;20410;-69
2021/12/28 12:01:44;;;;;;;0.50;0.43;;;20.30;53.10;;;;;;5016037;28;20923;-69
2021/12/28 12:04:31;;;;;;;0.50;0.40;;;20.20;53.20;;;;;;5031666;28;20488;-69
2021/12/28 12:07:14;;;;;;;0.60;0.53;;;19.40;52.70;;;;;;5031589;28;20794;-69
2021/12/28 12:09:49;;;;;;;0.67;0.60;;;19.40;52.70;;;;;;5031897;28;20391;-70
2021/12/28 12:12:16;;;;;;;0.60;0.60;;;19.50;52.80;;;;;;5043816;28;20473;-70
2021/12/28 12:15:03;;;;;;;0.60;0.60;;;19.40;52.80;;;;;;5051549;28;20540;-70
2021/12/28 12:17:37;;;;;;;0.50;0.50;;;19.50;52.80;;;;;;5044563;28;20429;-69
2021/12/28 12:20:16;;;;;;;0.60;0.60;;;19.70;52.90;;;;;;5051659;28;20410;-70
2021/12/28 12:23:07;;;;;;;0.60;0.60;;;19.40;52.70;;;;;;5051316;28;20413;-70
2021/12/28 12:25:41;;;;;;;0.50;0.50;;;19.60;52.90;;;;;;5051452;28;20929;-70
2021/12/28 12:28:08;;;;;;;0.50;0.50;;;19.40;52.80;;;;;;5051285;28;20474;-70
2021/12/28 12:30:33;;;;;;;0.50;0.40;;;19.40;52.80;;;;;;5051461;28;21067;-69
2021/12/28 12:33:02;;;;;;;0.50;0.50;;;19.40;53.50;;;;;;5051301;28;20414;-69
2021/12/28 12:35:46;;;;;;;1.33;0.93;;;19.40;52.90;;;;;;5050931;28;20283;-69
2021/12/28 12:38:12;;;;;;;0.50;0.50;;;19.40;52.80;;;;;;5027503;28;20472;-70
2021/12/28 12:41:00;;;;;;;0.50;0.50;;;19.70;53.00;;;;;;5025496;28;20842;-69
2021/12/28 12:43:27;;;;;;;0.50;0.40;;;19.40;60.20;;;;;;5030811;28;20214;-70
2021/12/28 12:45:53;;;;;;;0.50;0.50;;;19.50;52.90;;;;;;5030939;28;20430;-69
2021/12/28 12:48:36;;;;;;;0.60;0.47;;;19.60;53.00;;;;;;5031038;28;20407;-69
2021/12/28 12:51:23;;;;;;;0.70;0.70;;;19.80;53.10;;;;;;5030945;28;20187;-69